Maersk Magellan — 9V6751 — position and weather

sailwx.info

Track history (hours):
 
Tides and Currents Weather Stations Pressure Air Temp Water Temp Dewpoint Dewpoint Depression Visibility Wind Speed Wind Dir Waves Ship Positions

Maersk Magellan

Last reported at 2014-Jul-17 14:23 UTC. Time now 2014-Jul-30 01:01 UTC.
Position S 27°32' E 037°06'.
Warning: this ship's position is 12 days out of date.

; draft 10.9 m.

Type: Tanker. MMSI: 566549000.

Date/timePositionNaut miles runAvg speedWind from/ knotsBaromVisibWave heightAir tempDewpointWater temp
2014-Jul-17 14:23S 27°32' E 037°06'1112.0
2014-Jul-17 13:29S 27°37' E 036°56'1612.2
2014-Jul-17 12:10S 27°45' E 036°40'19611.7
2014-Jul-16 19:30S 29°13' E 033°22'2310.6
2014-Jul-16 17:23S 29°23' E 032°59'910.8
2014-Jul-16 16:33S 29°26' E 032°49'1110.8
2014-Jul-16 15:33S 29°31' E 032°38'1110.8
2014-Jul-16 14:33S 29°36' E 032°27'1110.9
2014-Jul-16 13:33S 29°40' E 032°15'1010.4
2014-Jul-16 12:33S 29°43' E 032°04'1111.0
2014-Jul-16 11:33S 29°44' E 031°51'1111.4
2014-Jul-16 10:33S 29°46' E 031°38'1212.4
2014-Jul-16 09:33S 29°48' E 031°24'1312.7
2014-Jul-16 08:33S 29°50' E 031°10'7 6.9
2014-Jul-16 07:30S 29°53' E 031°02'0 0.0
2014-Jul-16 06:30S 29°53' E 031°02'0 0.0
2014-Jul-16 05:30S 29°53' E 031°02'0 0.0
2014-Jul-16 04:30S 29°53' E 031°02'0 0.0
2014-Jul-16 03:30S 29°53' E 031°02'0 0.0
2014-Jul-16 02:24S 29°53' E 031°02'0 0.0
2014-Jul-16 01:24S 29°53' E 031°02'0 0.0
2014-Jul-16 00:30S 29°53' E 031°02'0 0.0
2014-Jul-15 23:30S 29°53' E 031°02'0 0.0
2014-Jul-15 22:24S 29°53' E 031°02'0 0.0
2014-Jul-15 21:30S 29°53' E 031°02'0 0.0
2014-Jul-15 20:24S 29°53' E 031°02'0 0.0
2014-Jul-15 19:18S 29°53' E 031°02'0 0.0
2014-Jul-15 18:24S 29°53' E 031°02'0 0.0
2014-Jul-15 17:30S 29°53' E 031°02'0 0.0
2014-Jul-15 16:18S 29°53' E 031°02'0 0.0
2014-Jul-15 15:30S 29°53' E 031°02'0 0.0
2014-Jul-15 14:30S 29°53' E 031°02'0 0.0
2014-Jul-15 13:24S 29°53' E 031°02'1 0.8
2014-Jul-15 12:33S 29°53' E 031°03'6 5.6
2014-Jul-15 11:33S 29°49' E 031°08'6 6.3
2014-Jul-15 10:33S 29°49' E 031°15'3 3.1
2014-Jul-15 09:33S 29°46' E 031°15'0 0.3
2014-Jul-15 08:33S 29°46' E 031°15'1 0.7
2014-Jul-15 07:33S 29°47' E 031°14'5 5.3
2014-Jul-15 06:33S 29°52' E 031°14'1211.8
2014-Jul-15 05:33S 30°03' E 031°08'1312.9
2014-Jul-15 04:33S 30°15' E 031°04'10 9.2
2014-Jul-15 03:29S 30°24' E 031°00'7811.0
2014-Jul-14 20:27S 31°32' E 030°17'  
Track history (hours):
 
Tides and Currents Weather Stations Pressure Air Temp Water Temp Dewpoint Dewpoint Depression Visibility Wind Speed Wind Dir Waves Ship Positions

Maersk Magellan

Last reported at 2014-Jul-17 14:23 UTC. Time now 2014-Jul-30 01:01 UTC.
Position S 27°32' E 037°06'.
Warning: this ship's position is 12 days out of date.

; draft 10.9 m.

Type: Tanker. MMSI: 566549000.

Date/timePositionNaut miles runAvg speedWind from/ knotsBaromVisibWave heightAir tempDewpointWater temp
2014-Jul-17 14:23S 27°32' E 037°06'1112.0
2014-Jul-17 13:29S 27°37' E 036°56'1612.2
2014-Jul-17 12:10S 27°45' E 036°40'19611.7
2014-Jul-16 19:30S 29°13' E 033°22'2310.6
2014-Jul-16 17:23S 29°23' E 032°59'910.8
2014-Jul-16 16:33S 29°26' E 032°49'1110.8
2014-Jul-16 15:33S 29°31' E 032°38'1110.8
2014-Jul-16 14:33S 29°36' E 032°27'1110.9
2014-Jul-16 13:33S 29°40' E 032°15'1010.4
2014-Jul-16 12:33S 29°43' E 032°04'1111.0
2014-Jul-16 11:33S 29°44' E 031°51'1111.4
2014-Jul-16 10:33S 29°46' E 031°38'1212.4
2014-Jul-16 09:33S 29°48' E 031°24'1312.7
2014-Jul-16 08:33S 29°50' E 031°10'7 6.9
2014-Jul-16 07:30S 29°53' E 031°02'0 0.0
2014-Jul-16 06:30S 29°53' E 031°02'0 0.0
2014-Jul-16 05:30S 29°53' E 031°02'0 0.0
2014-Jul-16 04:30S 29°53' E 031°02'0 0.0
2014-Jul-16 03:30S 29°53' E 031°02'0 0.0
2014-Jul-16 02:24S 29°53' E 031°02'0 0.0
2014-Jul-16 01:24S 29°53' E 031°02'0 0.0
2014-Jul-16 00:30S 29°53' E 031°02'0 0.0
2014-Jul-15 23:30S 29°53' E 031°02'0 0.0
2014-Jul-15 22:24S 29°53' E 031°02'0 0.0
2014-Jul-15 21:30S 29°53' E 031°02'0 0.0
2014-Jul-15 20:24S 29°53' E 031°02'0 0.0
2014-Jul-15 19:18S 29°53' E 031°02'0 0.0
2014-Jul-15 18:24S 29°53' E 031°02'0 0.0
2014-Jul-15 17:30S 29°53' E 031°02'0 0.0
2014-Jul-15 16:18S 29°53' E 031°02'0 0.0
2014-Jul-15 15:30S 29°53' E 031°02'0 0.0
2014-Jul-15 14:30S 29°53' E 031°02'0 0.0
2014-Jul-15 13:24S 29°53' E 031°02'1 0.8
2014-Jul-15 12:33S 29°53' E 031°03'6 5.6
2014-Jul-15 11:33S 29°49' E 031°08'6 6.3
2014-Jul-15 10:33S 29°49' E 031°15'3 3.1
2014-Jul-15 09:33S 29°46' E 031°15'0 0.3
2014-Jul-15 08:33S 29°46' E 031°15'1 0.7
2014-Jul-15 07:33S 29°47' E 031°14'5 5.3
2014-Jul-15 06:33S 29°52' E 031°14'1211.8
2014-Jul-15 05:33S 30°03' E 031°08'1312.9
2014-Jul-15 04:33S 30°15' E 031°04'10 9.2
2014-Jul-15 03:29S 30°24' E 031°00'7811.0
2014-Jul-14 20:27S 31°32' E 030°17'  

Dump ship's entire track history